Time;durP1;ratioP1;P1;durP2;ratioP2;P2;SDS_P1;SDS_P2;PMS_P1;PMS_P2;Temp;Humidity;BMP_temperature;BMP_pressure;BME280_temperature;BME280_humidity;BME280_pressure;Samples;Min_cycle;Max_cycle;Signal;HPM_P1;HPM_P2
2023/12/04 00:01:45;;;;;;;18.33;10.07;;;;;;;-1.80;90.25;101157.25;5051159;28;20232;-76
2023/12/04 00:04:12;;;;;;;14.73;7.30;;;;;;;-1.73;89.75;101155.47;5049663;28;20941;-76
2023/12/04 00:06:38;;;;;;;13.47;7.33;;;;;;;-1.70;89.00;101164.16;5052116;28;20708;-76
2023/12/04 00:09:05;;;;;;;17.53;9.13;;;;;;;-1.73;88.62;101156.34;5050004;28;20201;-75
2023/12/04 00:11:32;;;;;;;16.67;9.90;;;;;;;-1.73;88.63;101156.34;5050191;28;20248;-76
2023/12/04 00:13:58;;;;;;;18.00;9.97;;;;;;;-1.75;88.94;101145.91;5052671;28;20205;-75
2023/12/04 00:16:25;;;;;;;15.87;8.97;;;;;;;-1.72;89.74;101139.78;5052462;28;20206;-76
2023/12/04 00:18:53;;;;;;;16.10;9.53;;;;;;;-1.72;90.16;101145.00;5049827;28;20209;-76
2023/12/04 00:21:19;;;;;;;13.67;9.20;;;;;;;-1.74;91.25;101136.31;5050580;28;20232;-75
2023/12/04 00:23:46;;;;;;;17.37;9.17;;;;;;;-1.71;91.40;101128.47;5048505;28;20214;-76
2023/12/04 00:26:13;;;;;;;15.77;8.97;;;;;;;-1.74;92.23;101131.09;5049028;28;20237;-76
2023/12/04 00:28:40;;;;;;;14.90;8.93;;;;;;;-1.73;92.06;101113.69;5049872;28;20639;-76
2023/12/04 00:31:07;;;;;;;18.57;10.77;;;;;;;-1.73;92.82;101114.56;5051751;28;20233;-76
2023/12/04 00:33:33;;;;;;;14.17;8.87;;;;;;;-1.66;92.14;101110.19;5046290;28;20205;-75
2023/12/04 00:36:01;;;;;;;13.53;8.37;;;;;;;-1.66;92.52;101104.94;5044589;28;20213;-75
2023/12/04 00:38:27;;;;;;;18.47;8.63;;;;;;;-1.62;92.57;101102.31;5048342;28;20201;-76
2023/12/04 00:40:54;;;;;;;16.27;8.23;;;;;;;-1.60;92.75;101097.91;5046597;28;20226;-75
2023/12/04 00:43:20;;;;;;;17.27;9.13;;;;;;;-1.59;92.25;101090.97;5046593;28;20213;-75
2023/12/04 00:45:47;;;;;;;16.03;9.47;;;;;;;-1.58;92.26;101083.13;5048802;28;20230;-76
2023/12/04 00:48:13;;;;;;;16.20;9.17;;;;;;;-1.56;92.11;101078.75;5049196;28;20198;-75
2023/12/04 00:50:40;;;;;;;17.40;10.10;;;;;;;-1.57;92.16;101083.97;5047429;28;20205;-75
2023/12/04 00:53:07;;;;;;;14.97;9.10;;;;;;;-1.55;92.03;101077.88;5047256;28;20202;-75
2023/12/04 00:55:34;;;;;;;17.83;8.63;;;;;;;-1.59;92.07;101078.75;5046898;28;20198;-76
2023/12/04 00:58:00;;;;;;;19.57;10.53;;;;;;;-1.60;92.52;101063.09;5049469;28;20201;-76
2023/12/04 01:00:27;;;;;;;20.80;11.03;;;;;;;-1.61;92.32;101057.00;5047300;28;20197;-76
2023/12/04 01:02:54;;;;;;;16.10;9.30;;;;;;;-1.62;92.47;101051.84;5048899;28;20209;-75
2023/12/04 01:05:20;;;;;;;16.50;9.17;;;;;;;-1.62;92.07;101050.09;5051608;28;20629;-76
2023/12/04 01:07:46;;;;;;;22.23;11.03;;;;;;;-1.66;92.00;101056.19;5049822;28;20725;-76
2023/12/04 01:10:14;;;;;;;17.43;8.97;;;;;;;-1.66;92.02;101050.13;5053204;28;20217;-76
2023/12/04 01:12:41;;;;;;;17.90;9.40;;;;;;;-1.63;91.51;101048.34;5047418;28;20230;-76
2023/12/04 01:15:09;;;;;;;17.40;9.23;;;;;;;-1.61;91.52;101040.50;5050394;28;20220;-75
2023/12/04 01:17:35;;;;;;;15.43;9.70;;;;;;;-1.61;91.24;101043.13;5049266;28;20271;-76
2023/12/04 01:20:02;;;;;;;14.93;9.10;;;;;;;-1.61;90.92;101037.91;5047256;28;20213;-76
2023/12/04 01:22:28;;;;;;;18.13;9.00;;;;;;;-1.63;91.71;101035.28;5049915;28;20225;-76
2023/12/04 01:24:55;;;;;;;14.50;8.17;;;;;;;-1.61;92.05;101033.50;5050485;28;20209;-76
2023/12/04 01:27:23;;;;;;;16.70;8.33;;;;;;;-1.56;91.53;101031.75;5049121;28;20260;-76
2023/12/04 01:29:49;;;;;;;15.60;9.17;;;;;;;-1.53;91.51;101034.34;5053674;28;20205;-75
2023/12/04 01:32:15;;;;;;;18.13;9.73;;;;;;;-1.55;92.00;101023.03;5050423;28;20232;-75
2023/12/04 01:34:42;;;;;;;15.43;9.20;;;;;;;-1.56;91.17;101026.50;5049980;28;20214;-76
2023/12/04 01:37:08;;;;;;;16.40;9.57;;;;;;;-1.55;92.13;101024.78;5051246;28;20201;-76
2023/12/04 01:39:35;;;;;;;16.80;9.50;;;;;;;-1.57;92.16;101019.56;5050246;28;20205;-76
2023/12/04 01:42:01;;;;;;;19.30;10.40;;;;;;;-1.53;92.34;101023.00;5049717;28;20226;-76
2023/12/04 01:44:29;;;;;;;21.63;10.43;;;;;;;-1.52;92.41;101022.13;5048073;28;20209;-75
2023/12/04 01:46:56;;;;;;;18.10;10.00;;;;;;;-1.50;92.95;101026.47;5045945;28;20865;-75
2023/12/04 01:49:22;;;;;;;17.07;10.07;;;;;;;-1.48;93.13;101016.00;5045806;28;20210;-76
2023/12/04 01:51:49;;;;;;;17.50;9.83;;;;;;;-1.45;93.38;101016.00;5051870;28;20233;-76
2023/12/04 01:54:17;;;;;;;21.53;10.97;;;;;;;-1.45;93.60;101002.94;5055825;28;20205;-76
2023/12/04 01:56:45;;;;;;;14.30;8.63;;;;;;;-1.45;94.29;100993.34;5050196;28;20582;-75
2023/12/04 01:59:12;;;;;;;16.13;10.27;;;;;;;-1.49;94.99;100986.41;5048759;28;20697;-76
2023/12/04 02:01:41;;;;;;;18.67;9.97;;;;;;;-1.51;95.74;100990.78;5045895;28;20225;-76
2023/12/04 02:04:07;;;;;;;17.27;9.83;;;;;;;-1.51;96.23;100982.09;5049126;28;20209;-75
2023/12/04 02:06:35;;;;;;;16.87;9.43;;;;;;;-1.53;96.76;100979.47;5055028;28;20221;-76
2023/12/04 02:09:02;;;;;;;20.53;9.63;;;;;;;-1.47;96.94;100974.22;5049794;28;20236;-76
2023/12/04 02:11:29;;;;;;;19.60;10.37;;;;;;;-1.52;97.38;100960.31;5049573;28;20700;-76
2023/12/04 02:13:56;;;;;;;17.20;9.43;;;;;;;-1.52;97.88;100968.16;5050366;28;20771;-76
2023/12/04 02:16:27;;;;;;;19.13;10.00;;;;;;;-1.57;97.93;100961.22;5049967;28;20213;-76
2023/12/04 02:18:54;;;;;;;16.50;9.57;;;;;;;-1.59;98.20;100966.47;5048808;28;20206;-76
2023/12/04 02:21:21;;;;;;;17.90;9.63;;;;;;;-1.55;98.22;100956.84;5049431;28;20224;-76
2023/12/04 02:23:50;;;;;;;18.87;10.10;;;;;;;-1.55;98.54;100956.84;5049618;28;20221;-76
2023/12/04 02:26:22;;;;;;;15.27;8.67;;;;;;;-1.54;98.58;100951.63;5051777;28;20240;-74
2023/12/04 02:28:58;;;;;;;15.73;9.17;;;;;;;-1.53;98.26;100955.09;5041241;28;20562;-76
2023/12/04 02:31:25;;;;;;;16.83;8.97;;;;;;;-1.52;98.97;100946.38;5049157;28;20240;-76
2023/12/04 02:33:56;;;;;;;17.47;9.60;;;;;;;-1.53;99.13;100942.91;5049870;28;20220;-76
2023/12/04 02:36:24;;;;;;;17.20;9.67;;;;;;;-1.53;99.08;100935.06;5048875;28;20193;-76
2023/12/04 02:38:53;;;;;;;14.67;8.20;;;;;;;-1.44;98.30;100928.91;5049396;28;20208;-76
2023/12/04 02:41:20;;;;;;;17.33;9.17;;;;;;;-1.44;97.78;100932.41;5047509;28;20694;-76
2023/12/04 02:43:46;;;;;;;16.73;9.57;;;;;;;-1.46;97.97;100934.16;5052846;28;20725;-76
2023/12/04 02:46:13;;;;;;;15.27;8.57;;;;;;;-1.41;98.31;100926.25;5053258;28;20602;-76
2023/12/04 02:48:39;;;;;;;14.63;7.30;;;;;;;-1.40;97.33;100923.63;5049981;28;20216;-76
2023/12/04 02:51:06;;;;;;;15.40;8.63;;;;;;;-1.33;96.01;100915.72;5053683;28;20225;-76
2023/12/04 02:53:33;;;;;;;10.80;7.30;;;;;;;-1.35;95.24;100902.69;5058347;28;20400;-76
2023/12/04 02:56:00;;;;;;;15.03;8.00;;;;;;;-1.33;95.23;100902.66;5056195;28;20569;-76
2023/12/04 02:58:27;;;;;;;13.90;8.17;;;;;;;-1.32;95.05;100901.78;5062651;28;20777;-76
2023/12/04 03:00:53;;;;;;;17.70;9.03;;;;;;;-1.34;95.07;100888.72;5051456;28;20339;-76
2023/12/04 03:03:20;;;;;;;14.23;8.27;;;;;;;-1.33;94.31;100894.81;5051998;28;20201;-76
2023/12/04 03:05:46;;;;;;;13.77;8.27;;;;;;;-1.31;93.43;100882.63;5052617;28;20212;-76
2023/12/04 03:08:13;;;;;;;14.53;9.00;;;;;;;-1.29;92.97;100880.84;5051114;28;20586;-76
2023/12/04 03:10:39;;;;;;;13.47;8.80;;;;;;;-1.25;92.04;100870.31;5049961;28;20683;-76
2023/12/04 03:13:08;;;;;;;15.93;9.07;;;;;;;-1.24;92.46;100863.34;5050754;28;20220;-76
2023/12/04 03:15:34;;;;;;;13.53;8.77;;;;;;;-1.25;92.60;100870.31;5056988;28;20636;-76
2023/12/04 03:18:01;;;;;;;17.17;9.50;;;;;;;-1.26;92.60;100867.75;5052130;28;20231;-76
2023/12/04 03:20:28;;;;;;;15.37;8.73;;;;;;;-1.27;93.22;100866.91;5050137;28;20232;-76
2023/12/04 03:22:54;;;;;;;13.97;8.30;;;;;;;-1.27;92.85;100872.13;5054811;28;20227;-76
2023/12/04 03:25:20;;;;;;;13.03;7.70;;;;;;;-1.25;92.20;100882.53;5051890;28;20209;-76
2023/12/04 03:27:47;;;;;;;14.57;7.90;;;;;;;-1.26;91.06;100871.25;5050023;28;20230;-76
2023/12/04 03:30:16;;;;;;;13.70;7.53;;;;;;;-1.19;89.60;100877.25;5052736;28;20224;-76
2023/12/04 03:32:42;;;;;;;11.00;6.93;;;;;;;-1.18;88.75;100872.00;5045186;28;20233;-75
2023/12/04 03:35:09;;;;;;;14.10;7.53;;;;;;;-1.18;88.27;100873.75;5052826;28;20206;-75
2023/12/04 03:37:35;;;;;;;13.07;8.10;;;;;;;-1.14;86.73;100871.09;5051234;28;20217;-75
2023/12/04 03:40:01;;;;;;;13.93;8.07;;;;;;;-1.14;86.79;100862.38;5059394;28;20225;-76
2023/12/04 03:42:28;;;;;;;15.97;9.50;;;;;;;-1.13;86.67;100859.75;5053020;28;20619;-76
2023/12/04 03:44:54;;;;;;;13.20;8.00;;;;;;;-1.13;86.52;100864.09;5048183;28;20214;-76
2023/12/04 03:47:23;;;;;;;11.70;7.80;;;;;;;-1.11;85.84;100847.53;5056383;28;20704;-76
2023/12/04 03:49:50;;;;;;;12.80;7.77;;;;;;;-1.07;85.48;100848.31;5049540;28;20886;-76
2023/12/04 03:52:16;;;;;;;10.53;7.30;;;;;;;-1.07;85.10;100843.97;5052471;28;20226;-76
2023/12/04 03:54:42;;;;;;;12.70;7.37;;;;;;;-1.07;85.48;100827.41;5059393;28;20706;-76
2023/12/04 03:57:09;;;;;;;13.03;7.87;;;;;;;-1.10;85.83;100835.31;5050942;28;20208;-76
2023/12/04 03:59:35;;;;;;;12.20;7.60;;;;;;;-1.11;86.31;100826.63;5050882;28;20197;-76
2023/12/04 04:02:02;;;;;;;12.23;7.23;;;;;;;-1.02;84.47;100829.97;5049618;28;20691;-76
2023/12/04 04:04:29;;;;;;;12.37;7.80;;;;;;;-1.05;83.87;100821.28;5052360;28;20213;-75
2023/12/04 04:06:56;;;;;;;12.17;7.43;;;;;;;-1.06;84.68;100826.53;5050356;28;20702;-76
2023/12/04 04:09:22;;;;;;;12.90;7.67;;;;;;;-1.06;84.42;100816.94;5050595;28;20197;-76
2023/12/04 04:11:49;;;;;;;11.67;7.67;;;;;;;-1.09;84.46;100811.78;5051079;28;20248;-76
2023/12/04 04:14:15;;;;;;;12.20;7.13;;;;;;;-1.08;84.08;100807.44;5051730;28;20208;-76
2023/12/04 04:16:42;;;;;;;10.83;7.17;;;;;;;-1.05;84.31;100799.50;5053935;28;20205;-76
2023/12/04 04:19:08;;;;;;;13.30;7.63;;;;;;;-1.04;83.34;100790.78;5047778;28;20232;-76
2023/12/04 04:21:40;;;;;;;12.13;7.27;;;;;;;-1.04;82.51;100782.94;5049338;28;20690;-76
2023/12/04 04:24:06;;;;;;;13.53;7.40;;;;;;;-1.01;82.28;100782.03;5049912;28;20206;-76
2023/12/04 04:26:33;;;;;;;9.87;6.20;;;;;;;-0.97;81.54;100774.16;5052370;28;20569;-76
2023/12/04 04:28:59;;;;;;;9.30;6.97;;;;;;;-0.99;81.08;100778.53;5051223;28;20700;-76
2023/12/04 04:31:26;;;;;;;11.70;7.47;;;;;;;-0.99;81.63;100788.13;5050140;28;20600;-76
2023/12/04 04:33:52;;;;;;;13.03;6.97;;;;;;;-0.98;82.17;100790.72;5052957;28;20670;-76
2023/12/04 04:36:19;;;;;;;13.47;7.73;;;;;;;-0.94;81.58;100781.94;5053379;28;20205;-76
2023/12/04 04:38:46;;;;;;;11.17;7.10;;;;;;;-0.92;81.44;100777.56;5053186;28;20212;-76
2023/12/04 04:41:14;;;;;;;13.50;7.60;;;;;;;-0.94;82.24;100771.50;5049800;28;20702;-76
2023/12/04 04:43:41;;;;;;;10.80;6.73;;;;;;;-0.90;82.19;100773.19;5053050;28;20216;-77
2023/12/04 04:46:07;;;;;;;10.63;6.87;;;;;;;-0.85;81.84;100765.25;5051667;28;20215;-76
2023/12/04 04:48:34;;;;;;;13.33;7.13;;;;;;;-0.78;80.82;100774.75;5049683;28;20613;-76
2023/12/04 04:51:00;;;;;;;10.17;6.87;;;;;;;-0.82;81.10;100759.97;5051512;28;20751;-76
2023/12/04 04:53:27;;;;;;;10.83;6.57;;;;;;;-0.80;79.95;100763.44;5057762;28;20197;-76
2023/12/04 04:55:55;;;;;;;10.33;7.00;;;;;;;-0.81;79.88;100753.88;5051337;28;20573;-76
2023/12/04 04:58:21;;;;;;;11.87;7.53;;;;;;;-0.81;79.92;100749.50;5049296;28;20232;-76
2023/12/04 05:00:47;;;;;;;10.63;7.17;;;;;;;-0.80;79.71;100751.22;5046200;28;20301;-76
2023/12/04 05:03:14;;;;;;;13.73;7.40;;;;;;;-0.82;80.18;100750.38;5051855;28;20227;-76
2023/12/04 05:05:40;;;;;;;11.40;6.63;;;;;;;-0.81;79.76;100754.72;5048307;28;20589;-76
2023/12/04 05:08:07;;;;;;;13.00;7.57;;;;;;;-0.82;79.92;100745.16;5055971;28;20390;-76
2023/12/04 05:10:33;;;;;;;11.77;7.00;;;;;;;-0.80;79.61;100743.38;5048989;28;20508;-76
2023/12/04 05:13:01;;;;;;;12.43;7.73;;;;;;;-0.82;79.85;100739.94;5047471;28;20209;-76
2023/12/04 05:15:28;;;;;;;11.90;7.20;;;;;;;-0.82;80.32;100742.53;5044548;28;20205;-76
2023/12/04 05:17:54;;;;;;;11.43;7.50;;;;;;;-0.80;80.38;100748.63;5048455;28;20209;-76
2023/12/04 05:20:21;;;;;;;12.63;7.83;;;;;;;-0.79;79.99;100736.41;5050570;28;20206;-76
2023/12/04 05:22:48;;;;;;;12.27;7.57;;;;;;;-0.78;78.87;100743.38;5049144;28;20222;-76
2023/12/04 05:25:15;;;;;;;12.63;7.93;;;;;;;-0.78;79.33;100740.75;5046867;28;20756;-76
2023/12/04 05:27:41;;;;;;;12.33;7.87;;;;;;;-0.82;80.34;100739.94;5053077;28;20229;-76
2023/12/04 05:30:10;;;;;;;14.30;8.47;;;;;;;-0.79;79.73;100746.88;5049586;28;20202;-76
2023/12/04 05:32:36;;;;;;;10.53;6.93;;;;;;;-0.80;80.27;100742.53;5049043;28;20233;-75
2023/12/04 05:35:03;;;;;;;11.97;7.23;;;;;;;-0.76;79.40;100742.47;5047452;28;20760;-75
2023/12/04 05:37:29;;;;;;;11.20;7.33;;;;;;;-0.77;79.43;100732.88;5046569;28;20851;-75
2023/12/04 05:39:56;;;;;;;12.73;7.70;;;;;;;-0.79;79.13;100732.03;5051993;28;20185;-75
2023/12/04 05:42:23;;;;;;;11.37;7.33;;;;;;;-0.80;79.30;100729.44;5052373;28;20228;-75
2023/12/04 05:44:49;;;;;;;11.23;7.47;;;;;;;-0.81;79.47;100731.19;5045070;28;20209;-76
2023/12/04 05:47:17;;;;;;;11.63;7.53;;;;;;;-0.83;79.62;100725.13;5043956;28;20238;-76
2023/12/04 05:49:43;;;;;;;12.03;7.10;;;;;;;-0.82;79.38;100724.25;5051079;28;20214;-76
2023/12/04 05:52:10;;;;;;;11.37;6.80;;;;;;;-0.81;79.44;100709.41;5043520;28;20237;-76
2023/12/04 05:54:40;;;;;;;13.47;8.40;;;;;;;-0.82;78.66;100723.38;5046975;28;20201;-76
2023/12/04 05:57:06;;;;;;;11.83;7.33;;;;;;;-0.82;79.04;100713.78;5050619;28;20221;-76
2023/12/04 05:59:32;;;;;;;12.30;7.40;;;;;;;-0.82;79.37;100719.00;5051054;28;20213;-76
2023/12/04 06:01:59;;;;;;;11.23;7.40;;;;;;;-0.83;79.40;100725.13;5045267;28;20229;-76
2023/12/04 06:04:27;;;;;;;13.10;7.60;;;;;;;-0.82;79.41;100721.63;5046454;28;20281;-76
2023/12/04 06:06:54;;;;;;;11.73;7.60;;;;;;;-0.84;79.44;100720.78;5047286;28;20209;-76
2023/12/04 06:09:20;;;;;;;12.67;7.60;;;;;;;-0.86;79.75;100719.94;5046012;28;20225;-76
2023/12/04 06:11:46;;;;;;;11.10;7.23;;;;;;;-0.87;80.12;100712.13;5049283;28;20225;-76
2023/12/04 06:14:13;;;;;;;12.33;7.97;;;;;;;-0.87;79.75;100715.59;5048164;28;20584;-76
2023/12/04 06:16:39;;;;;;;12.93;7.97;;;;;;;-0.86;79.98;100706.88;5046019;28;20209;-77
2023/12/04 06:19:06;;;;;;;12.57;8.10;;;;;;;-0.86;79.81;100699.03;5049354;28;20209;-76
2023/12/04 06:21:34;;;;;;;11.63;7.50;;;;;;;-0.84;79.77;100706.84;5045594;28;20232;-76
2023/12/04 06:24:01;;;;;;;12.50;7.27;;;;;;;-0.86;79.96;100695.53;5049916;28;20212;-77
2023/12/04 06:26:28;;;;;;;12.13;7.83;;;;;;;-0.86;80.47;100704.25;5050794;28;20206;-76
2023/12/04 06:28:55;;;;;;;14.30;8.73;;;;;;;-0.88;80.54;100699.94;5048526;28;20225;-76
2023/12/04 06:31:22;;;;;;;12.20;8.13;;;;;;;-0.84;80.37;100689.41;5059096;28;20217;-76
2023/12/04 06:33:48;;;;;;;13.17;7.90;;;;;;;-0.82;80.86;100695.47;5051141;28;20777;-76
2023/12/04 06:36:17;;;;;;;11.70;7.73;;;;;;;-0.81;80.30;100699.81;5054068;28;20206;-76
2023/12/04 06:38:48;;;;;;;13.50;7.87;;;;;;;-0.81;80.43;100693.72;5050998;28;20216;-76
2023/12/04 06:41:15;;;;;;;12.77;7.90;;;;;;;-0.80;80.05;100700.69;5047505;28;20217;-77
2023/12/04 06:43:42;;;;;;;12.50;7.60;;;;;;;-0.79;79.81;100699.78;5052617;28;20213;-75
2023/12/04 06:46:09;;;;;;;12.07;8.00;;;;;;;-0.79;79.23;100689.34;5051541;28;20565;-76
2023/12/04 06:48:36;;;;;;;12.00;7.43;;;;;;;-0.81;79.61;100697.19;5053269;28;20224;-76
2023/12/04 06:51:03;;;;;;;14.93;8.70;;;;;;;-0.81;79.70;100697.19;5049525;28;20235;-76
2023/12/04 06:53:29;;;;;;;13.43;8.23;;;;;;;-0.81;79.88;100694.59;5050537;28;20225;-76
2023/12/04 06:55:57;;;;;;;11.83;7.77;;;;;;;-0.81;79.74;100686.75;5051877;28;20205;-76
2023/12/04 06:58:24;;;;;;;11.50;7.60;;;;;;;-0.79;79.44;100691.94;5049374;28;20220;-76
2023/12/04 07:00:51;;;;;;;11.37;7.97;;;;;;;-0.79;79.01;100691.94;5050889;28;20198;-76
2023/12/04 07:03:17;;;;;;;11.40;7.53;;;;;;;-0.77;78.79;100695.41;5053009;28;20198;-77
2023/12/04 07:05:43;;;;;;;9.77;7.27;;;;;;;-0.73;79.15;100704.94;5051234;28;20214;-76
2023/12/04 07:08:10;;;;;;;12.97;7.37;;;;;;;-0.69;77.98;100696.13;5052658;28;20701;-75
2023/12/04 07:10:36;;;;;;;10.43;7.10;;;;;;;-0.69;77.47;100698.75;5051255;28;20213;-77
2023/12/04 07:13:05;;;;;;;12.40;7.43;;;;;;;-0.72;77.24;100707.50;5052835;28;20283;-76
2023/12/04 07:15:31;;;;;;;12.03;7.90;;;;;;;-0.73;77.50;100708.41;5054372;28;20197;-76
2023/12/04 07:17:58;;;;;;;12.07;8.03;;;;;;;-0.70;77.74;100705.72;5053301;28;20202;-76
2023/12/04 07:20:24;;;;;;;13.07;7.90;;;;;;;-0.72;77.92;100707.50;5052675;28;20197;-77
2023/12/04 07:22:51;;;;;;;12.57;7.93;;;;;;;-0.70;77.58;100708.34;5052852;28;20217;-76
2023/12/04 07:25:17;;;;;;;12.47;7.90;;;;;;;-0.72;77.78;100707.50;5050146;28;20574;-76
2023/12/04 07:27:44;;;;;;;11.87;8.07;;;;;;;-0.73;77.50;100713.66;5051376;28;20216;-76
2023/12/04 07:30:12;;;;;;;10.50;7.30;;;;;;;-0.68;77.50;100713.53;5051648;28;20210;-76
2023/12/04 07:32:39;;;;;;;10.33;7.23;;;;;;;-0.65;76.91;100704.78;5051092;28;20249;-76
2023/12/04 07:35:07;;;;;;;11.87;7.87;;;;;;;-0.65;76.90;100703.03;5056502;28;20212;-76
2023/12/04 07:37:34;;;;;;;16.27;8.50;;;;;;;-0.61;76.89;100703.84;5054177;28;20213;-77
2023/12/04 07:40:00;;;;;;;12.23;7.47;;;;;;;-0.62;76.84;100707.38;5054503;28;20201;-76
2023/12/04 07:42:27;;;;;;;12.70;7.70;;;;;;;-0.67;77.44;100706.56;5050343;28;20560;-76
2023/12/04 07:44:53;;;;;;;10.73;8.00;;;;;;;-0.67;77.61;100702.19;5047794;28;20653;-76
2023/12/04 07:47:22;;;;;;;13.57;8.10;;;;;;;-0.64;77.49;100706.53;5053003;28;20206;-76
2023/12/04 07:49:48;;;;;;;13.60;8.10;;;;;;;-0.63;77.17;100700.41;5053120;28;20283;-76
2023/12/04 07:52:15;;;;;;;12.43;7.17;;;;;;;-0.66;77.32;100692.59;5046803;28;20252;-76
2023/12/04 07:54:41;;;;;;;14.13;8.20;;;;;;;-0.61;77.49;100699.50;5052624;28;20212;-76
2023/12/04 07:57:08;;;;;;;13.17;8.33;;;;;;;-0.61;77.56;100701.25;5055617;28;20217;-76
2023/12/04 07:59:35;;;;;;;12.93;8.40;;;;;;;-0.62;77.94;100689.06;5053103;28;20193;-77
2023/12/04 08:02:01;;;;;;;12.60;8.13;;;;;;;-0.61;78.08;100688.16;5056548;28;20248;-76
2023/12/04 08:04:29;;;;;;;15.63;8.53;;;;;;;-0.59;77.64;100689.00;5056351;28;20749;-76
2023/12/04 08:06:56;;;;;;;12.10;7.30;;;;;;;-0.57;77.49;100684.63;5051815;28;20209;-76
2023/12/04 08:09:22;;;;;;;11.83;7.90;;;;;;;-0.59;77.64;100681.16;5051163;28;20308;-76
2023/12/04 08:11:49;;;;;;;14.23;7.70;;;;;;;-0.59;77.76;100682.03;5053935;28;20225;-76
2023/12/04 08:14:16;;;;;;;12.63;8.27;;;;;;;-0.60;77.24;100677.69;5051058;28;20206;-75
2023/12/04 08:16:42;;;;;;;13.80;8.10;;;;;;;-0.57;77.25;100682.88;5053243;28;20217;-76
2023/12/04 08:19:08;;;;;;;12.67;8.37;;;;;;;-0.54;77.52;100692.41;5048763;28;20200;-76
2023/12/04 08:21:36;;;;;;;13.30;8.70;;;;;;;-0.57;77.53;100682.88;5059168;28;20228;-76
2023/12/04 08:24:03;;;;;;;12.23;7.93;;;;;;;-0.57;77.62;100684.63;5060142;28;20213;-75
2023/12/04 08:26:29;;;;;;;11.07;7.33;;;;;;;-0.60;77.98;100689.91;5052159;28;20210;-76
2023/12/04 08:28:56;;;;;;;16.50;8.50;;;;;;;-0.64;78.29;100669.91;5052698;28;20225;-76
2023/12/04 08:31:23;;;;;;;11.70;8.03;;;;;;;-0.62;78.19;100678.59;5052336;28;20236;-76
2023/12/04 08:33:49;;;;;;;13.00;8.13;;;;;;;-0.58;78.26;100669.81;5053489;28;20670;-76
2023/12/04 08:36:16;;;;;;;9.70;6.13;;;;;;;-0.57;77.79;100663.69;5051905;28;20214;-75
2023/12/04 08:38:44;;;;;;;11.73;7.93;;;;;;;-0.59;77.05;100668.09;5052531;28;20253;-75
2023/12/04 08:41:10;;;;;;;12.17;7.83;;;;;;;-0.61;77.94;100659.41;5053458;28;20221;-75
2023/12/04 08:43:43;;;;;;;13.10;8.20;;;;;;;-0.60;78.31;100666.34;5051816;28;20216;-75
2023/12/04 08:46:13;;;;;;;12.13;8.13;;;;;;;-0.58;77.20;100661.97;5046074;28;20197;-75
2023/12/04 08:48:40;;;;;;;12.37;8.30;;;;;;;-0.60;77.05;100664.59;5050366;28;20230;-75
2023/12/04 08:51:08;;;;;;;10.03;7.50;;;;;;;-0.63;77.01;100658.56;5050968;28;20217;-75
2023/12/04 08:53:35;;;;;;;11.83;7.90;;;;;;;-0.63;77.04;100658.56;5052870;28;20202;-75
2023/12/04 08:56:03;;;;;;;11.57;7.93;;;;;;;-0.59;77.48;100648.03;5051381;28;20213;-75
2023/12/04 08:58:29;;;;;;;11.20;7.70;;;;;;;-0.59;76.43;100650.63;5052183;28;20262;-75
2023/12/04 09:00:56;;;;;;;12.10;7.90;;;;;;;-0.57;76.77;100650.59;5051322;28;20226;-75
2023/12/04 09:03:23;;;;;;;12.43;7.33;;;;;;;-0.57;77.09;100650.59;5050960;28;20588;-75
2023/12/04 09:05:51;;;;;;;11.83;7.63;;;;;;;-0.50;77.08;100645.22;5053708;28;20205;-74
2023/12/04 09:08:18;;;;;;;13.50;8.40;;;;;;;-0.48;76.78;100645.19;5047935;28;20640;-75
2023/12/04 09:10:45;;;;;;;13.13;8.07;;;;;;;-0.47;76.52;100647.78;5052830;28;20658;-75
2023/12/04 09:13:13;;;;;;;11.63;7.47;;;;;;;-0.47;75.80;100644.31;5051681;28;20209;-75
2023/12/04 09:15:39;;;;;;;11.27;7.27;;;;;;;-0.42;75.09;100650.31;5051283;28;20197;-75
2023/12/04 09:18:06;;;;;;;15.20;9.10;;;;;;;-0.41;75.34;100647.69;5051605;28;20213;-75
2023/12/04 09:20:33;;;;;;;9.70;7.03;;;;;;;-0.33;74.74;100641.44;5050055;28;20218;-75
2023/12/04 09:22:59;;;;;;;10.83;7.43;;;;;;;-0.36;75.24;100639.75;5054940;28;20554;-75
2023/12/04 09:25:25;;;;;;;11.97;7.47;;;;;;;-0.33;75.13;100641.44;5054285;28;20263;-75
2023/12/04 09:27:52;;;;;;;10.80;6.67;;;;;;;-0.29;75.18;100643.97;5056769;28;20202;-74
2023/12/04 09:30:20;;;;;;;11.27;7.03;;;;;;;-0.23;74.50;100646.47;5051012;28;20244;-75
2023/12/04 09:32:46;;;;;;;10.03;7.00;;;;;;;-0.18;73.17;100639.38;5049208;28;20685;-75
2023/12/04 09:35:13;;;;;;;9.17;6.23;;;;;;;-0.15;73.42;100644.56;5053862;28;20209;-75
2023/12/04 09:37:39;;;;;;;9.60;6.50;;;;;;;-0.08;73.22;100638.31;5057111;28;21333;-75
2023/12/04 09:40:08;;;;;;;11.83;6.93;;;;;;;-0.04;73.26;100642.59;5050367;28;20692;-75
2023/12/04 09:42:35;;;;;;;9.93;6.60;;;;;;;-0.05;73.92;100642.63;5049529;28;20314;-74
2023/12/04 09:45:02;;;;;;;8.93;5.73;;;;;;;-0.03;73.43;100631.25;5050831;28;20216;-75
2023/12/04 09:47:30;;;;;;;11.07;7.03;;;;;;;0.00;73.75;100627.69;5052904;28;20214;-75
2023/12/04 09:49:57;;;;;;;10.67;7.10;;;;;;;0.05;73.60;100623.22;5053973;28;20312;-74
2023/12/04 09:52:24;;;;;;;10.53;6.83;;;;;;;0.09;73.41;100616.16;5049600;28;20225;-75
2023/12/04 09:54:51;;;;;;;9.23;6.27;;;;;;;0.10;72.44;100617.88;5046316;28;20216;-75
2023/12/04 09:57:18;;;;;;;11.10;6.60;;;;;;;0.15;72.36;100616.03;5053575;28;20209;-75
2023/12/04 09:59:46;;;;;;;8.90;6.13;;;;;;;0.14;72.38;100598.59;5050369;28;20201;-75
2023/12/04 10:02:12;;;;;;;10.20;6.67;;;;;;;0.17;71.73;100606.41;5049354;28;20232;-75
2023/12/04 10:04:42;;;;;;;8.53;5.70;;;;;;;0.21;70.86;100597.56;5054827;28;20205;-75
2023/12/04 10:07:08;;;;;;;10.77;6.73;;;;;;;0.22;70.34;100596.66;5051993;28;20208;-75
2023/12/04 10:09:35;;;;;;;10.30;6.43;;;;;;;0.19;70.30;100588.84;5057608;28;20222;-75
2023/12/04 10:12:02;;;;;;;10.63;6.90;;;;;;;0.22;70.58;100587.03;5054540;28;20233;-75
2023/12/04 10:14:30;;;;;;;9.77;6.87;;;;;;;0.22;70.20;100587.03;5049598;28;20218;-75
2023/12/04 10:16:56;;;;;;;7.93;6.17;;;;;;;0.22;71.12;100580.94;5050622;28;20285;-75
2023/12/04 10:19:25;;;;;;;9.67;6.33;;;;;;;0.24;71.05;100580.03;5053142;28;20197;-75
2023/12/04 10:21:55;;;;;;;11.17;6.50;;;;;;;0.23;71.34;100572.19;5050878;28;20221;-75
2023/12/04 10:24:30;;;;;;;8.03;5.63;;;;;;;0.24;70.83;100572.16;5053526;28;20210;-75
2023/12/04 10:26:58;;;;;;;9.33;6.43;;;;;;;0.25;70.85;100565.16;5050663;28;20200;-74
2023/12/04 10:29:27;;;;;;;10.47;6.57;;;;;;;0.22;71.23;100560.00;5050064;28;20763;-75
2023/12/04 10:31:55;;;;;;;7.40;5.30;;;;;;;0.18;71.25;100553.94;5050911;28;20588;-75
2023/12/04 10:34:25;;;;;;;9.20;5.70;;;;;;;0.22;70.00;100553.00;5042203;28;20216;-74
2023/12/04 10:36:53;;;;;;;8.63;6.13;;;;;;;0.23;70.07;100552.09;5047755;28;20260;-76
2023/12/04 10:39:21;;;;;;;9.37;5.77;;;;;;;0.19;70.41;100546.97;5051615;28;20294;-77
2023/12/04 10:42:00;;;;;;;8.27;5.77;;;;;;;0.18;70.56;100545.25;5048629;28;20240;-76
2023/12/04 10:44:26;;;;;;;9.13;6.10;;;;;;;0.18;70.37;100545.25;5046493;28;20197;-76
2023/12/04 10:46:54;;;;;;;9.50;6.10;;;;;;;0.21;69.97;100538.19;5056036;28;20372;-76
2023/12/04 10:49:21;;;;;;;9.00;6.07;;;;;;;0.25;70.29;100536.34;5050052;28;20226;-76
2023/12/04 10:51:47;;;;;;;8.33;5.80;;;;;;;0.29;70.68;100530.16;5048744;28;20233;-76
2023/12/04 10:54:16;;;;;;;8.47;5.73;;;;;;;0.28;69.19;100523.19;5051821;28;20205;-77
2023/12/04 10:56:44;;;;;;;9.57;5.77;;;;;;;0.31;69.44;100523.13;5050186;28;20209;-76
2023/12/04 10:59:15;;;;;;;9.87;6.50;;;;;;;0.33;68.97;100523.97;5053042;28;20264;-76
2023/12/04 11:01:45;;;;;;;9.67;6.40;;;;;;;0.31;69.62;100518.75;5049770;28;20325;-77
2023/12/04 11:04:18;;;;;;;8.83;6.20;;;;;;;0.33;69.37;100510.84;5048848;28;20259;-76
2023/12/04 11:06:49;;;;;;;9.03;5.37;;;;;;;0.33;70.04;100513.47;5057893;28;20206;-76
2023/12/04 11:09:19;;;;;;;7.20;5.10;;;;;;;0.36;70.13;100499.44;5052432;28;20218;-76
2023/12/04 11:11:52;;;;;;;8.57;5.77;;;;;;;0.39;69.16;100500.22;5053298;28;20686;-75
2023/12/04 11:14:22;;;;;;;9.20;5.93;;;;;;;0.39;69.54;100497.59;5052437;28;20553;-77
2023/12/04 11:16:54;;;;;;;7.43;5.20;;;;;;;0.40;69.03;100491.44;5053189;28;20251;-76
2023/12/04 11:19:28;;;;;;;8.13;5.57;;;;;;;0.40;68.60;100490.59;5053793;28;20193;-75